createdAt,value
2017-12-01T00:02:14.993Z,5.00
2017-12-01T00:04:43.222Z,5.00
2017-12-01T00:07:10.750Z,5.00
2017-12-01T00:09:38.727Z,5.00
2017-12-01T00:12:06.259Z,5.00
2017-12-01T00:14:33.798Z,5.00
2017-12-01T00:17:01.728Z,5.00
2017-12-01T00:19:29.262Z,5.10
2017-12-01T00:21:57.547Z,5.10
2017-12-01T00:24:25.071Z,5.00
2017-12-01T00:26:52.795Z,5.00
2017-12-01T00:29:20.332Z,5.00
2017-12-01T00:31:48.025Z,4.90
2017-12-01T00:34:17.690Z,4.90
2017-12-01T00:36:45.248Z,4.80
2017-12-01T00:39:13.814Z,4.80
2017-12-01T00:41:43.051Z,4.70
2017-12-01T00:44:10.624Z,4.70
2017-12-01T00:46:38.501Z,4.80
2017-12-01T00:49:06.052Z,4.70
2017-12-01T00:51:33.596Z,4.70
2017-12-01T00:54:01.159Z,4.60
2017-12-01T00:56:28.677Z,4.60
2017-12-01T00:58:56.292Z,4.60
2017-12-01T01:01:23.801Z,4.60
2017-12-01T01:03:51.312Z,4.70
2017-12-01T01:06:18.852Z,4.70
2017-12-01T01:08:46.400Z,4.70
2017-12-01T01:11:14.018Z,4.70
2017-12-01T01:13:41.544Z,4.70
2017-12-01T01:16:09.114Z,4.70
2017-12-01T01:18:36.649Z,4.80
2017-12-01T01:21:04.210Z,4.70
2017-12-01T01:23:31.752Z,4.60
2017-12-01T01:25:59.315Z,4.70
2017-12-01T01:28:26.854Z,4.70
2017-12-01T01:30:54.421Z,4.70
2017-12-01T01:33:22.000Z,4.70
2017-12-01T01:35:49.526Z,4.60
2017-12-01T01:38:17.102Z,4.70
2017-12-01T01:40:44.658Z,4.70
2017-12-01T01:43:12.190Z,4.40
2017-12-01T01:45:39.763Z,4.40
2017-12-01T01:48:08.059Z,4.60
2017-12-01T01:50:35.673Z,4.60
2017-12-01T01:53:03.242Z,4.60
2017-12-01T01:55:30.838Z,4.50
2017-12-01T01:57:58.365Z,4.50
2017-12-01T02:00:25.963Z,4.40
2017-12-01T02:02:53.477Z,4.30
2017-12-01T02:05:21.848Z,4.30
2017-12-01T02:07:49.416Z,4.30
2017-12-01T02:10:17.693Z,4.30
2017-12-01T02:12:45.265Z,4.20
2017-12-01T02:15:12.900Z,4.30
2017-12-01T02:17:40.433Z,4.20
2017-12-01T02:20:07.955Z,4.20
2017-12-01T02:22:35.556Z,4.30
2017-12-01T02:25:03.070Z,4.30
2017-12-01T02:27:31.400Z,4.30
2017-12-01T02:29:58.929Z,4.30
2017-12-01T02:32:26.701Z,4.40
2017-12-01T02:34:54.254Z,4.40
2017-12-01T02:37:21.814Z,4.30
2017-12-01T02:39:49.338Z,4.30
2017-12-01T02:42:17.668Z,4.40
2017-12-01T02:44:45.278Z,4.40
2017-12-01T02:47:12.799Z,4.50
2017-12-01T02:49:40.357Z,4.30
2017-12-01T02:52:07.923Z,4.10
2017-12-01T02:54:35.665Z,4.10
2017-12-01T02:57:03.219Z,4.10
2017-12-01T02:59:30.759Z,4.20
2017-12-01T03:01:58.293Z,4.20
2017-12-01T03:04:26.581Z,4.20
2017-12-01T03:06:54.134Z,4.10
2017-12-01T03:09:22.415Z,4.40
2017-12-01T03:11:49.988Z,4.40
2017-12-01T03:14:17.488Z,4.50
2017-12-01T03:16:45.021Z,4.40
2017-12-01T03:19:12.998Z,4.40
2017-12-01T03:21:40.554Z,4.50
2017-12-01T03:24:08.118Z,4.40
2017-12-01T03:26:35.731Z,4.40
2017-12-01T03:29:03.351Z,4.40
2017-12-01T03:31:30.937Z,4.50
2017-12-01T03:33:58.470Z,4.40
2017-12-01T03:36:25.991Z,4.40
2017-12-01T03:38:53.528Z,4.40
2017-12-01T03:41:21.852Z,4.50
2017-12-01T03:43:49.409Z,4.40
2017-12-01T03:46:16.923Z,4.30
2017-12-01T03:48:44.458Z,4.40
2017-12-01T03:51:12.016Z,4.40
2017-12-01T03:53:40.126Z,4.50
2017-12-01T03:56:08.439Z,4.50
2017-12-01T03:58:35.983Z,4.50
2017-12-01T04:01:03.524Z,4.50
2017-12-01T04:03:31.102Z,4.50
2017-12-01T04:05:58.620Z,4.60
2017-12-01T04:08:26.179Z,4.60
2017-12-01T04:10:53.695Z,4.50
2017-12-01T04:13:21.275Z,4.50
2017-12-01T04:15:48.828Z,4.60
2017-12-01T04:18:16.393Z,4.60
2017-12-01T04:20:43.905Z,4.60
2017-12-01T04:23:11.440Z,4.50
2017-12-01T04:25:39.017Z,4.40
2017-12-01T04:28:06.536Z,4.50
2017-12-01T04:30:34.080Z,4.50
2017-12-01T04:33:01.614Z,4.60
2017-12-01T04:35:29.161Z,4.40
2017-12-01T04:37:56.679Z,4.40
2017-12-01T04:40:24.996Z,4.60
2017-12-01T04:42:52.508Z,4.60
2017-12-01T04:45:20.234Z,4.70
2017-12-01T04:47:47.757Z,4.70
2017-12-01T04:50:15.313Z,4.80
2017-12-01T04:52:42.861Z,4.90
2017-12-01T04:55:10.428Z,4.90
2017-12-01T04:57:37.966Z,4.90
2017-12-01T05:00:05.511Z,4.80
2017-12-01T05:02:33.025Z,4.80
2017-12-01T05:05:01.321Z,4.90
2017-12-01T05:07:29.212Z,4.90
2017-12-01T06:31:53.803Z,4.80
2017-12-01T06:34:21.315Z,4.10
2017-12-01T06:36:48.852Z,4.30
2017-12-01T06:39:17.292Z,4.70
2017-12-01T06:41:45.016Z,4.70
2017-12-01T06:44:12.538Z,4.80
2017-12-01T06:46:40.091Z,4.90
2017-12-01T06:49:07.608Z,4.90
2017-12-01T06:51:35.160Z,5.00
2017-12-01T06:54:02.715Z,5.10
2017-12-01T06:56:30.228Z,5.10
2017-12-01T06:58:57.772Z,5.10
2017-12-01T07:01:25.313Z,5.10
2017-12-01T07:03:52.868Z,5.20
2017-12-01T07:06:20.400Z,5.20
2017-12-01T07:08:47.954Z,5.30
2017-12-01T07:11:15.477Z,5.40
2017-12-01T07:13:43.049Z,5.40
2017-12-01T07:16:10.594Z,5.40
2017-12-01T07:18:38.298Z,5.40
2017-12-01T07:21:05.860Z,5.40
2017-12-01T07:23:33.444Z,5.40
2017-12-01T07:26:12.840Z,5.20
2017-12-01T07:28:40.414Z,5.20
2017-12-01T07:31:08.007Z,5.20
2017-12-01T07:33:35.549Z,5.30
2017-12-01T07:36:03.083Z,5.30
2017-12-01T07:38:30.683Z,5.30
2017-12-01T07:40:58.198Z,5.40
2017-12-01T07:43:26.194Z,5.40
2017-12-01T07:45:53.749Z,5.40
2017-12-01T07:48:21.329Z,5.50
2017-12-01T07:50:49.038Z,5.40
2017-12-01T07:53:16.602Z,5.50
2017-12-01T07:55:45.286Z,5.40
2017-12-01T07:58:13.612Z,5.50
2017-12-01T08:00:41.494Z,5.50
2017-12-01T08:03:09.044Z,5.30
2017-12-01T08:05:36.565Z,5.40
2017-12-01T08:08:04.146Z,5.30
2017-12-01T08:10:31.707Z,5.30
2017-12-01T08:12:59.235Z,5.30
2017-12-01T08:15:26.861Z,5.40
2017-12-01T08:17:54.547Z,5.60
2017-12-01T08:20:23.430Z,5.50
2017-12-01T08:22:52.961Z,5.40
2017-12-01T08:25:27.353Z,5.40
2017-12-01T08:27:54.936Z,5.40
2017-12-01T08:30:22.648Z,5.50
2017-12-01T08:32:50.651Z,5.40
2017-12-01T08:35:18.173Z,5.40
2017-12-01T08:37:45.726Z,5.40
2017-12-01T08:40:13.705Z,5.40
2017-12-01T08:42:41.281Z,5.50
2017-12-01T08:45:08.855Z,5.60
2017-12-01T08:47:36.419Z,5.70
2017-12-01T08:50:03.960Z,5.70
2017-12-01T08:52:31.517Z,5.70
2017-12-01T08:54:59.068Z,5.60
2017-12-01T08:57:26.892Z,5.50
2017-12-01T08:59:56.428Z,5.50
2017-12-01T09:02:24.878Z,5.50
2017-12-01T09:04:52.513Z,5.60
2017-12-01T09:07:23.540Z,5.70
2017-12-01T09:09:52.096Z,5.70
2017-12-01T09:12:20.912Z,5.80
2017-12-01T09:14:48.495Z,5.80
2017-12-01T09:17:16.397Z,5.80
2017-12-01T09:19:43.974Z,5.90
2017-12-01T09:22:12.025Z,5.70
2017-12-01T09:24:39.886Z,5.70
2017-12-01T09:27:07.446Z,5.80
2017-12-01T09:29:35.255Z,5.90
2017-12-01T09:32:02.823Z,5.90
2017-12-01T09:34:30.871Z,5.80
2017-12-01T09:36:58.639Z,5.70
2017-12-01T09:39:26.311Z,5.80
2017-12-01T09:41:53.896Z,5.80
2017-12-01T09:44:21.521Z,5.70
2017-12-01T09:46:49.093Z,5.80
2017-12-01T09:49:16.693Z,5.90
2017-12-01T09:51:44.258Z,5.90
2017-12-01T09:54:11.827Z,5.90
2017-12-01T09:56:39.676Z,5.90
2017-12-01T09:59:07.428Z,6.00
2017-12-01T10:01:35.142Z,6.00
2017-12-01T10:04:03.612Z,5.90
2017-12-01T10:06:31.166Z,5.80
2017-12-01T10:08:59.641Z,5.80
2017-12-01T10:11:27.281Z,5.70
2017-12-01T10:13:54.871Z,5.70
2017-12-01T10:16:22.447Z,5.80
2017-12-01T10:18:49.985Z,5.80
2017-12-01T10:21:18.085Z,5.80
2017-12-01T10:23:45.641Z,5.80
2017-12-01T10:26:14.320Z,6.00
2017-12-01T10:28:41.863Z,5.90
2017-12-01T10:31:09.424Z,5.90
2017-12-01T10:33:37.863Z,6.20
2017-12-01T10:36:05.392Z,6.10
2017-12-01T10:38:32.962Z,6.10
2017-12-01T10:41:00.521Z,6.00
2017-12-01T10:43:28.035Z,6.10
2017-12-01T10:45:55.695Z,6.20
2017-12-01T10:48:23.292Z,6.10
2017-12-01T10:50:51.197Z,6.20
2017-12-01T10:53:18.949Z,6.10
2017-12-01T10:55:47.585Z,6.20
2017-12-01T10:58:15.496Z,6.20
2017-12-01T11:00:43.783Z,6.20
2017-12-01T11:03:11.435Z,6.00
2017-12-01T11:05:39.230Z,6.00
2017-12-01T11:08:06.759Z,6.00
2017-12-01T11:10:35.927Z,6.10
2017-12-01T11:13:03.451Z,6.20
2017-12-01T11:15:31.233Z,6.20
2017-12-01T11:17:59.256Z,6.40
2017-12-01T11:20:26.825Z,6.40
2017-12-01T11:22:54.348Z,6.30
2017-12-01T11:25:21.913Z,6.30
2017-12-01T11:27:49.440Z,6.30
2017-12-01T11:30:17.032Z,6.30
2017-12-01T11:32:44.564Z,6.30
2017-12-01T11:35:12.138Z,6.30
2017-12-01T11:37:39.712Z,6.30
2017-12-01T11:40:07.418Z,6.20
2017-12-01T11:42:35.042Z,6.30
2017-12-01T11:45:02.599Z,6.30
2017-12-01T11:47:30.168Z,6.20
2017-12-01T11:49:57.698Z,6.30
2017-12-01T11:52:25.281Z,6.40
2017-12-01T11:54:52.826Z,6.30
2017-12-01T11:57:20.401Z,6.30
2017-12-01T11:59:48.667Z,6.30
2017-12-01T12:02:16.468Z,6.40
2017-12-01T12:04:44.093Z,6.30
2017-12-01T12:07:11.612Z,6.30
2017-12-01T12:09:39.158Z,6.30
2017-12-01T12:12:06.720Z,6.30
2017-12-01T12:14:34.244Z,6.30
2017-12-01T12:17:01.779Z,6.20
2017-12-01T12:19:29.333Z,6.30
2017-12-01T12:21:56.895Z,6.30
2017-12-01T12:24:24.492Z,6.20
2017-12-01T12:26:52.304Z,6.30
2017-12-01T12:29:19.850Z,6.30
2017-12-01T12:31:47.457Z,6.20
2017-12-01T12:34:15.025Z,6.30
2017-12-01T12:36:42.589Z,6.30
2017-12-01T12:39:10.386Z,6.30
2017-12-01T12:41:37.910Z,6.30
2017-12-01T12:44:06.325Z,6.10
2017-12-01T12:46:33.916Z,6.10
2017-12-01T12:49:01.462Z,6.20
2017-12-01T12:51:28.981Z,6.30
2017-12-01T12:53:56.535Z,6.40
2017-12-01T12:56:24.108Z,6.40
2017-12-01T12:58:51.687Z,6.40
2017-12-01T13:01:20.025Z,6.40
2017-12-01T13:03:47.933Z,6.40
2017-12-01T13:06:15.493Z,6.40
2017-12-01T13:08:43.029Z,6.40
2017-12-01T13:11:10.558Z,6.30
2017-12-01T13:13:38.479Z,6.40
2017-12-01T13:16:06.037Z,6.50
2017-12-01T13:18:34.384Z,6.50
2017-12-01T13:21:01.887Z,6.50
2017-12-01T13:23:30.266Z,6.40
2017-12-01T13:25:58.610Z,6.30
2017-12-01T13:28:26.186Z,6.30
2017-12-01T13:30:53.774Z,6.40
2017-12-01T13:33:21.327Z,6.40
2017-12-01T13:35:49.604Z,6.40
2017-12-01T13:38:17.460Z,6.40
2017-12-01T13:40:46.004Z,6.40
2017-12-01T13:43:13.580Z,6.40
2017-12-01T13:45:41.362Z,6.40
2017-12-01T13:48:08.950Z,6.30
2017-12-01T13:50:36.586Z,6.20
2017-12-01T13:53:04.998Z,6.40
2017-12-01T13:55:32.544Z,6.40
2017-12-01T13:58:00.105Z,6.40
2017-12-01T14:00:27.645Z,6.40
2017-12-01T14:02:55.924Z,6.20
2017-12-01T14:05:23.479Z,6.20
2017-12-01T14:07:51.798Z,6.40
2017-12-01T14:10:19.373Z,6.40
2017-12-01T14:12:46.916Z,6.40
2017-12-01T14:15:14.438Z,6.50
2017-12-01T14:17:41.984Z,6.40
2017-12-01T14:20:09.664Z,6.20
2017-12-01T14:22:37.219Z,6.10
2017-12-01T14:25:05.568Z,6.10
2017-12-01T14:27:33.079Z,6.10
2017-12-01T14:30:00.752Z,6.00
2017-12-01T14:32:28.299Z,6.00
2017-12-01T14:34:55.860Z,6.20
2017-12-01T14:37:23.412Z,6.20
2017-12-01T14:39:50.964Z,6.30
2017-12-01T14:42:19.375Z,6.30
2017-12-01T14:44:46.938Z,6.30
2017-12-01T14:47:14.491Z,6.30
2017-12-01T14:49:42.101Z,6.30
2017-12-01T14:52:09.629Z,6.40
2017-12-01T14:54:37.165Z,6.30
2017-12-01T14:57:04.704Z,6.30
2017-12-01T14:59:33.136Z,6.20
2017-12-01T15:02:00.644Z,6.20
2017-12-01T15:04:28.231Z,6.20
2017-12-01T15:06:55.767Z,6.10
2017-12-01T15:09:24.086Z,6.30
2017-12-01T15:11:51.629Z,6.30
2017-12-01T15:14:19.160Z,6.10
2017-12-01T15:16:46.705Z,6.10
2017-12-01T15:19:14.231Z,6.20
2017-12-01T15:21:42.639Z,6.20
2017-12-01T15:24:10.196Z,6.20
2017-12-01T15:26:37.761Z,6.20
2017-12-01T15:29:05.316Z,6.10
2017-12-01T15:31:33.640Z,6.10
2017-12-01T15:34:01.184Z,6.10
2017-12-01T15:36:28.720Z,6.20
2017-12-01T15:38:56.295Z,6.30
2017-12-01T15:41:23.812Z,6.30
2017-12-01T15:43:51.363Z,6.20
2017-12-01T15:46:18.896Z,6.20
2017-12-01T15:48:46.455Z,6.10
2017-12-01T15:51:14.037Z,6.10
2017-12-01T15:53:41.561Z,6.10
2017-12-01T15:56:09.081Z,6.00
2017-12-01T15:58:36.624Z,6.00
2017-12-01T16:01:04.184Z,6.10
2017-12-01T16:03:31.708Z,6.00
2017-12-01T16:05:59.278Z,6.00
2017-12-01T16:08:26.839Z,6.00
2017-12-01T16:10:54.391Z,6.00
2017-12-01T16:13:21.942Z,5.90
2017-12-01T16:15:49.480Z,5.90
2017-12-01T16:18:17.795Z,5.90
2017-12-01T16:20:45.330Z,5.90
2017-12-01T16:23:12.895Z,6.00
2017-12-01T16:25:40.829Z,6.00
2017-12-01T16:28:08.372Z,6.00
2017-12-01T16:30:35.946Z,6.00
2017-12-01T16:33:08.495Z,6.10
2017-12-01T16:35:32.109Z,6.10
2017-12-01T16:37:59.672Z,6.10
2017-12-01T16:40:27.943Z,6.00
2017-12-01T16:42:55.479Z,5.90
2017-12-01T16:45:23.048Z,5.90
2017-12-01T16:47:50.556Z,5.80
2017-12-01T16:50:18.524Z,5.80
2017-12-01T16:52:46.045Z,5.90
2017-12-01T16:55:13.606Z,5.90
2017-12-01T16:57:41.116Z,6.00
2017-12-01T17:00:08.672Z,6.00
2017-12-01T17:02:36.235Z,5.90
2017-12-01T17:05:03.752Z,6.00
2017-12-01T17:07:31.291Z,6.00
2017-12-01T17:09:59.872Z,5.90
2017-12-01T17:12:27.428Z,5.90
2017-12-01T17:14:54.985Z,5.90
2017-12-01T17:17:22.589Z,5.90
2017-12-01T17:19:50.103Z,5.80
2017-12-01T17:22:17.638Z,5.90
2017-12-01T17:24:45.197Z,5.80
2017-12-01T17:27:13.476Z,5.90
2017-12-01T17:29:41.811Z,5.90
2017-12-01T17:32:10.097Z,5.90
2017-12-01T17:34:37.667Z,5.90
2017-12-01T17:37:05.268Z,5.90
2017-12-01T17:39:32.843Z,5.90
2017-12-01T17:42:00.352Z,5.90
2017-12-01T17:44:27.913Z,5.90
2017-12-01T17:46:55.444Z,5.80
2017-12-01T17:49:22.992Z,5.80
2017-12-01T17:51:51.280Z,5.80
2017-12-01T17:54:18.828Z,5.80
2017-12-01T17:56:47.557Z,5.70
2017-12-01T17:59:15.116Z,5.70
2017-12-01T18:01:42.660Z,5.60
2017-12-01T18:04:10.256Z,5.60
2017-12-01T18:06:38.057Z,5.50
2017-12-01T18:09:05.578Z,5.60
2017-12-01T18:11:33.139Z,5.60
2017-12-01T18:14:00.684Z,5.60
2017-12-01T18:16:28.233Z,5.60
2017-12-01T18:18:55.781Z,5.70
2017-12-01T18:21:23.334Z,5.80
2017-12-01T18:23:50.878Z,5.80
2017-12-01T18:26:18.435Z,5.80
2017-12-01T18:28:45.961Z,5.80
2017-12-01T18:31:13.485Z,5.70
2017-12-01T18:33:41.036Z,5.80
2017-12-01T18:36:08.556Z,5.90
2017-12-01T18:38:36.096Z,5.80
2017-12-01T18:41:03.663Z,5.80
2017-12-01T18:43:31.180Z,5.80
2017-12-01T18:45:58.849Z,5.80
2017-12-01T18:48:26.370Z,5.70
2017-12-01T18:50:53.920Z,5.70
2017-12-01T18:53:21.460Z,5.80
2017-12-01T18:55:48.981Z,5.80
2017-12-01T18:58:16.531Z,5.80
2017-12-01T19:00:44.059Z,5.80
2017-12-01T19:03:11.593Z,5.90
2017-12-01T19:05:39.153Z,5.90
2017-12-01T19:08:06.679Z,5.90
2017-12-01T19:10:34.245Z,6.10
2017-12-01T19:13:01.800Z,6.00
2017-12-01T19:15:29.329Z,5.90
2017-12-01T19:17:56.884Z,5.90
2017-12-01T19:20:24.784Z,5.70
2017-12-01T19:22:52.403Z,5.70
2017-12-01T19:25:19.980Z,5.70
2017-12-01T19:27:47.586Z,5.60
2017-12-01T19:30:15.221Z,5.60
2017-12-01T19:32:42.765Z,5.70
2017-12-01T19:35:10.445Z,5.70
2017-12-01T19:37:37.979Z,5.80
2017-12-01T19:40:05.515Z,5.70
2017-12-01T19:42:33.125Z,5.80
2017-12-01T19:45:00.631Z,5.80
2017-12-01T19:47:28.147Z,5.80
2017-12-01T19:49:55.717Z,5.80
2017-12-01T19:52:23.286Z,5.90
2017-12-01T19:54:50.809Z,5.90
2017-12-01T19:57:18.389Z,6.00
2017-12-01T19:59:45.945Z,5.90
2017-12-01T20:02:13.516Z,6.00
2017-12-01T20:04:41.037Z,6.00
2017-12-01T20:07:09.421Z,6.10
2017-12-01T20:09:36.951Z,6.10
2017-12-01T20:12:04.503Z,6.00
2017-12-01T20:14:32.024Z,6.00
2017-12-01T20:16:59.563Z,6.00
2017-12-01T20:19:27.145Z,5.90
2017-12-01T20:21:54.685Z,6.00
2017-12-01T20:24:22.195Z,6.00
2017-12-01T20:26:49.745Z,6.00
2017-12-01T20:29:17.288Z,6.00
2017-12-01T20:31:44.928Z,6.00
2017-12-01T20:34:12.453Z,6.20
2017-12-01T20:36:40.744Z,6.10
2017-12-01T20:39:08.339Z,6.10
2017-12-01T20:41:35.887Z,6.10
2017-12-01T20:44:03.440Z,6.00
2017-12-01T20:46:30.958Z,6.00
2017-12-01T20:48:58.528Z,6.00
2017-12-01T20:51:26.099Z,6.00
2017-12-01T20:53:53.666Z,6.10
2017-12-01T20:56:22.042Z,6.00
2017-12-01T20:58:49.637Z,6.00
2017-12-01T21:01:17.172Z,6.00
2017-12-01T21:03:44.719Z,5.90
2017-12-01T21:06:12.991Z,6.00
2017-12-01T21:08:40.533Z,6.00
2017-12-01T21:11:08.045Z,6.10
2017-12-01T21:13:35.567Z,5.90
2017-12-01T21:16:03.096Z,5.90
2017-12-01T21:18:30.698Z,5.90
2017-12-01T21:20:58.989Z,5.90
2017-12-01T21:23:26.504Z,5.90
2017-12-01T21:25:54.060Z,5.90
2017-12-01T21:28:21.572Z,5.80
2017-12-01T21:30:49.165Z,5.80
2017-12-01T21:33:16.728Z,5.70
2017-12-01T21:35:44.394Z,5.80
2017-12-01T21:38:11.951Z,5.80
2017-12-01T21:40:39.499Z,5.70
2017-12-01T21:43:07.047Z,5.70
2017-12-01T21:45:34.570Z,5.70
2017-12-01T21:48:02.855Z,5.70
2017-12-01T21:50:30.399Z,5.70
2017-12-01T21:52:58.718Z,5.70
2017-12-01T21:55:26.252Z,5.70
2017-12-01T21:57:53.772Z,5.70
2017-12-01T22:00:21.316Z,5.60
2017-12-01T22:02:48.867Z,5.60
2017-12-01T22:05:16.375Z,5.60
2017-12-01T22:07:44.704Z,5.70
2017-12-01T22:10:12.328Z,5.70
2017-12-01T22:12:39.842Z,5.70
2017-12-01T22:15:07.379Z,5.70
2017-12-01T22:17:34.888Z,5.70
2017-12-01T22:20:03.220Z,5.70
2017-12-01T22:22:30.740Z,5.70
2017-12-01T22:24:58.280Z,5.60
2017-12-01T22:27:25.792Z,5.50
2017-12-01T22:29:53.371Z,5.50
2017-12-01T22:32:20.931Z,5.50
2017-12-01T22:34:48.453Z,5.30
2017-12-01T22:37:15.961Z,5.40
2017-12-01T22:39:43.542Z,5.30
2017-12-01T22:42:11.853Z,5.40
2017-12-01T22:44:39.416Z,5.40
2017-12-01T22:47:06.979Z,5.30
2017-12-01T22:49:34.533Z,5.40
2017-12-01T22:52:02.051Z,5.30
2017-12-01T22:54:30.420Z,5.20
2017-12-01T22:56:58.007Z,5.20
2017-12-01T22:59:25.587Z,5.20
2017-12-01T23:01:53.100Z,5.10
2017-12-01T23:04:20.647Z,5.10
2017-12-01T23:06:48.277Z,5.10
2017-12-01T23:09:15.830Z,5.00
2017-12-01T23:11:43.340Z,4.90
2017-12-01T23:14:10.888Z,4.90
2017-12-01T23:16:38.448Z,5.00
2017-12-01T23:19:05.998Z,5.10
2017-12-01T23:21:33.541Z,5.20
2017-12-01T23:24:01.161Z,5.10
2017-12-01T23:26:28.660Z,4.90
2017-12-01T23:28:56.204Z,4.90
2017-12-01T23:31:23.730Z,4.90
2017-12-01T23:36:33.582Z,5.00
2017-12-01T23:39:01.131Z,4.90
2017-12-01T23:41:28.683Z,4.90
2017-12-01T23:43:56.220Z,4.90
2017-12-01T23:46:23.752Z,5.00
2017-12-01T23:48:51.298Z,5.00
2017-12-01T23:51:18.814Z,5.10
2017-12-01T23:53:46.361Z,5.00
2017-12-01T23:56:13.904Z,5.00
2017-12-01T23:58:41.452Z,5.00
